Energy Champion — MJUZ7 — position and weather

sailwx.info

Track history (hours):
 
Tides and Currents Weather Stations Pressure Air Temp Water Temp Dewpoint Dewpoint Depression Visibility Wind Speed Wind Dir Waves Ship Positions

Energy Champion

Last reported at 2015-Apr-23 06:20 UTC. Time now 2015-May-06 12:29 UTC.
Position N 37°32' W 123°37'.
Warning: this ship's position is 13 days out of date.

Length 228 m; draft 9.1 m.

Type: Tanker. MMSI: 235009420.

Date/timePositionNaut miles runAvg speedWind from/ knotsBaromVisibWave heightAir tempDewpointWater temp
2015-Apr-23 06:20N 37°32' W 123°37'6 7.1
2015-Apr-23 05:25N 37°32' W 123°29'8 8.3
2015-Apr-23 04:26N 37°33' W 123°19'8 8.8
2015-Apr-23 03:33N 37°34' W 123°09'1111.0
2015-Apr-23 02:33N 37°38' W 122°56'1212.0
2015-Apr-23 01:33N 37°45' W 122°43'1111.2
2015-Apr-23 00:33N 37°49' W 122°30'8 7.7
2015-Apr-22 23:33N 37°56' W 122°27'9 8.8
2015-Apr-22 22:33N 38°03' W 122°20'9 8.5
2015-Apr-22 21:31N 38°02' W 122°09'1 0.0
2015-Apr-20 21:33N 38°02' W 122°08'4 3.7
2015-Apr-20 20:30N 38°04' W 122°12'1111.1
2015-Apr-20 19:33N 37°60' W 122°25'1212.4
2015-Apr-20 18:33N 37°48' W 122°22'3 3.1
2015-Apr-20 17:31N 37°45' W 122°20'0 0.1
2015-Apr-20 16:31N 37°45' W 122°20'0 0.2
2015-Apr-20 15:31N 37°45' W 122°21'0 0.1
2015-Apr-20 14:31N 37°45' W 122°21'0 0.0
2015-Apr-20 13:31N 37°45' W 122°21'0 0.0
2015-Apr-20 12:31N 37°45' W 122°21'0 0.0
2015-Apr-20 11:31N 37°45' W 122°21'0 0.0
2015-Apr-20 10:31N 37°45' W 122°21'0 0.1
2015-Apr-20 09:31N 37°45' W 122°20'0 0.2
2015-Apr-20 08:31N 37°45' W 122°20'0 0.1
2015-Apr-20 07:31N 37°45' W 122°20'0 0.0
2015-Apr-20 06:31N 37°45' W 122°20'0 0.0
2015-Apr-20 05:31N 37°45' W 122°20'0 0.0
2015-Apr-20 04:31N 37°45' W 122°20'0 0.1
2015-Apr-20 03:31N 37°45' W 122°20'0 0.2
2015-Apr-20 02:31N 37°45' W 122°20'0 0.1
2015-Apr-20 01:31N 37°45' W 122°21'0 0.0
2015-Apr-20 00:31N 37°45' W 122°21'0 0.1
2015-Apr-19 23:31N 37°45' W 122°21'0 0.1
2015-Apr-19 22:31N 37°45' W 122°20'0 0.1
2015-Apr-19 21:31N 37°45' W 122°20'0 0.1
2015-Apr-19 20:31N 37°45' W 122°20'0 0.1
2015-Apr-19 19:31N 37°45' W 122°20'0 0.0
2015-Apr-19 18:31N 37°45' W 122°21'0 0.0
2015-Apr-19 17:31N 37°45' W 122°20'0 0.0
2015-Apr-19 16:31N 37°45' W 122°21'0 0.2
2015-Apr-19 15:31N 37°45' W 122°21'0 0.0
2015-Apr-19 14:31N 37°45' W 122°21'0 0.0
2015-Apr-19 13:31N 37°45' W 122°21'0 0.0
2015-Apr-19 12:31N 37°45' W 122°21'0 0.0
2015-Apr-19 11:31N 37°45' W 122°21'0 0.0
2015-Apr-19 10:31N 37°45' W 122°21'0 0.0
2015-Apr-19 09:31N 37°45' W 122°21'0 0.2
2015-Apr-19 08:28N 37°45' W 122°20'0 0.1
2015-Apr-19 07:31N 37°45' W 122°20'0 0.0
2015-Apr-19 06:31N 37°45' W 122°20'0 0.0
2015-Apr-19 05:31N 37°45' W 122°20'0 0.0
2015-Apr-19 04:31N 37°45' W 122°20'0 0.1
2015-Apr-19 03:31N 37°45' W 122°20'0 0.1
2015-Apr-19 02:31N 37°45' W 122°20'0 0.2
2015-Apr-19 01:28N 37°45' W 122°21'0 0.1
2015-Apr-19 00:31N 37°45' W 122°21'0 0.0
2015-Apr-18 23:31N 37°45' W 122°21'0 0.0
2015-Apr-18 22:31N 37°45' W 122°21'0 0.1
2015-Apr-18 21:31N 37°45' W 122°20'0 0.1
2015-Apr-18 20:31N 37°45' W 122°20'0 0.1
2015-Apr-18 19:31N 37°45' W 122°20'0 0.0
2015-Apr-18 18:31N 37°45' W 122°20'0 0.0
2015-Apr-18 17:31N 37°45' W 122°20'0 0.2
2015-Apr-18 16:33N 37°45' W 122°21'9 9.3
2015-Apr-18 15:33N 37°48' W 122°32'1111.5
2015-Apr-18 14:33N 37°42' W 122°44'8 8.3
2015-Apr-18 13:33N 37°37' W 122°53'7 7.4
2015-Apr-18 12:33N 37°33' W 123°00'7 7.1
2015-Apr-18 11:33N 37°31' W 123°09'3 3.0
2015-Apr-18 10:33N 37°29' W 123°11'3 3.5
2015-Apr-18 09:33N 37°26' W 123°08'5 5.4
2015-Apr-18 08:33N 37°21' W 123°05'8 7.8
2015-Apr-18 07:33N 37°14' W 123°01'1110.3
2015-Apr-18 06:31N 37°05' W 122°55'1010.5
2015-Apr-18 05:33N 36°56' W 122°50'1110.6
2015-Apr-18 04:33N 36°46' W 122°44'1110.8
2015-Apr-18 03:33N 36°36' W 122°38'1111.0
2015-Apr-18 02:34N 36°26' W 122°33'1111.0
2015-Apr-18 01:33N 36°16' W 122°27'1110.6
2015-Apr-18 00:33N 36°07' W 122°21'1010.0
2015-Apr-17 23:33N 35°58' W 122°14'1010.3
2015-Apr-17 22:33N 35°50' W 122°07'1010.4
2015-Apr-17 21:33N 35°41' W 121°60'1410.0
2015-Apr-17 20:09N 35°30' W 121°50'1810.6
2015-Apr-17 18:29N 35°15' W 121°37'1010.8
2015-Apr-17 17:33N 35°07' W 121°30'1111.3
2015-Apr-17 16:33N 34°58' W 121°22'1211.8
2015-Apr-17 15:31N 34°48' W 121°13'1111.3
2015-Apr-17 14:33N 34°39' W 121°06'1111.3
2015-Apr-17 13:33N 34°30' W 120°57'2311.0
2015-Apr-17 11:26N 34°22' W 120°31'6811.5
2015-Apr-17 05:33N 34°03' W 119°12'10 9.6
2015-Apr-17 04:33N 33°58' W 119°02'9 9.1
2015-Apr-17 03:33N 33°54' W 118°53'1110.7
2015-Apr-17 02:33N 33°48' W 118°41'1111.2
2015-Apr-17 01:34N 33°43' W 118°30'10 9.8
2015-Apr-17 00:32N 33°38' W 118°19'9 9.4
2015-Apr-16 23:33N 33°39' W 118°08'2 1.5
2015-Apr-16 22:30N 33°40' W 118°06'0 0.0
2015-Apr-16 21:33N 33°40' W 118°06'0 0.0
2015-Apr-16 20:33N 33°40' W 118°06'0 0.0
2015-Apr-16 19:27N 33°40' W 118°06'0 0.0
2015-Apr-16 18:33N 33°40' W 118°06'0 0.0
2015-Apr-16 17:33N 33°40' W 118°06'0 0.0
2015-Apr-16 16:33N 33°40' W 118°06'0 0.1
2015-Apr-16 15:33N 33°40' W 118°06'0 0.0
2015-Apr-16 14:33N 33°40' W 118°06'0 0.0
2015-Apr-16 13:33N 33°40' W 118°06'0 0.0
2015-Apr-16 12:33N 33°40' W 118°06'0 0.0
2015-Apr-16 11:33N 33°40' W 118°06'0 0.0
2015-Apr-16 10:30N 33°40' W 118°06'0 0.1
2015-Apr-16 09:27N 33°40' W 118°06'0 0.0
2015-Apr-16 08:33N 33°40' W 118°06'0 0.1
2015-Apr-16 07:33N 33°40' W 118°06'0 0.1
2015-Apr-16 06:33N 33°40' W 118°06'0 0.0
2015-Apr-16 05:33N 33°40' W 118°06'0 0.1
2015-Apr-16 04:30N 33°40' W 118°06'0 0.0
2015-Apr-16 03:33N 33°40' W 118°06'0 0.0
2015-Apr-16 02:33N 33°40' W 118°06'0 0.0
2015-Apr-16 01:33N 33°40' W 118°06'0 0.0
2015-Apr-16 00:33N 33°40' W 118°06'0 0.0
2015-Apr-15 23:33N 33°40' W 118°06'0 0.0
2015-Apr-15 22:33N 33°40' W 118°06'0 0.0
2015-Apr-15 21:33N 33°40' W 118°06'0 0.0
2015-Apr-15 20:33N 33°40' W 118°06'0 0.0
2015-Apr-15 19:33N 33°40' W 118°06'0 0.0
2015-Apr-15 18:33N 33°40' W 118°06'0 0.0
2015-Apr-15 17:33N 33°40' W 118°06'0 0.0
2015-Apr-15 16:33N 33°40' W 118°06'0 0.0
2015-Apr-15 15:21N 33°40' W 118°06'0 0.1
2015-Apr-15 13:29N 33°40' W 118°07'0 0.1
2015-Apr-15 12:30N 33°40' W 118°07'0 0.1
2015-Apr-15 11:33N 33°40' W 118°07'0 0.0
2015-Apr-15 10:09N 33°40' W 118°07'0 0.0
2015-Apr-15 08:24N 33°40' W 118°06'0 0.1
2015-Apr-15 07:21N 33°40' W 118°06'0 0.0
2015-Apr-15 05:33N 33°40' W 118°06'0 0.0
2015-Apr-15 04:03N 33°40' W 118°06'0 0.0
2015-Apr-15 03:09N 33°40' W 118°06'0 0.0
2015-Apr-15 02:21N 33°40' W 118°06'0 0.0
2015-Apr-14 22:09N 33°40' W 118°06'0 0.0
2015-Apr-14 21:21N 33°40' W 118°06'0 0.0
2015-Apr-14 20:27N 33°40' W 118°06'0 0.1
2015-Apr-14 19:27N 33°40' W 118°06'0 0.0
2015-Apr-14 18:24N 33°40' W 118°06'0 0.0
2015-Apr-14 17:33N 33°40' W 118°06'0 0.0
2015-Apr-14 16:33N 33°40' W 118°06'0 0.1
2015-Apr-14 15:30N 33°40' W 118°06'0 0.0
2015-Apr-14 12:09N 33°40' W 118°06'0 0.1
2015-Apr-14 11:12N 33°40' W 118°06'0 0.0
2015-Apr-14 10:33N 33°40' W 118°06'0 0.1
2015-Apr-14 09:30N 33°40' W 118°06'0 0.0
2015-Apr-14 04:33N 33°40' W 118°06'0 0.0
2015-Apr-14 03:21N 33°40' W 118°06'0 0.0
2015-Apr-14 02:30N 33°40' W 118°06'0 0.0
2015-Apr-14 01:33N 33°40' W 118°06'0 0.0
2015-Apr-14 00:33N 33°40' W 118°06'0 0.0
2015-Apr-13 23:33N 33°40' W 118°06'0 0.0
2015-Apr-13 22:30N 33°40' W 118°06'0 0.0
2015-Apr-13 21:33N 33°40' W 118°06'0 0.0
2015-Apr-13 20:27N 33°40' W 118°06'0 0.0
2015-Apr-13 19:21N 33°40' W 118°06'0 0.0
2015-Apr-13 17:27N 33°40' W 118°06'0 0.0
2015-Apr-13 16:33N 33°40' W 118°06'0 0.0
2015-Apr-13 15:30N 33°40' W 118°06'0 0.1
2015-Apr-13 14:33N 33°40' W 118°07'0 0.1
2015-Apr-13 13:33N 33°40' W 118°07'0 0.0
2015-Apr-13 12:21N 33°40' W 118°07'0 0.0
2015-Apr-13 11:33N 33°40' W 118°07'0 0.1
2015-Apr-13 10:33N 33°40' W 118°07'0 0.0
2015-Apr-13 09:33N 33°40' W 118°07'0 0.2
2015-Apr-13 08:33N 33°40' W 118°06'0 0.1
2015-Apr-13 07:33N 33°40' W 118°07'0 0.1
2015-Apr-13 06:33N 33°40' W 118°06'  
Track history (hours):
 
Tides and Currents Weather Stations Pressure Air Temp Water Temp Dewpoint Dewpoint Depression Visibility Wind Speed Wind Dir Waves Ship Positions

Energy Champion

Last reported at 2015-Apr-23 06:20 UTC. Time now 2015-May-06 12:29 UTC.
Position N 37°32' W 123°37'.
Warning: this ship's position is 13 days out of date.

Length 228 m; draft 9.1 m.

Type: Tanker. MMSI: 235009420.

Date/timePositionNaut miles runAvg speedWind from/ knotsBaromVisibWave heightAir tempDewpointWater temp
2015-Apr-23 06:20N 37°32' W 123°37'6 7.1
2015-Apr-23 05:25N 37°32' W 123°29'8 8.3
2015-Apr-23 04:26N 37°33' W 123°19'8 8.8
2015-Apr-23 03:33N 37°34' W 123°09'1111.0
2015-Apr-23 02:33N 37°38' W 122°56'1212.0
2015-Apr-23 01:33N 37°45' W 122°43'1111.2
2015-Apr-23 00:33N 37°49' W 122°30'8 7.7
2015-Apr-22 23:33N 37°56' W 122°27'9 8.8
2015-Apr-22 22:33N 38°03' W 122°20'9 8.5
2015-Apr-22 21:31N 38°02' W 122°09'1 0.0
2015-Apr-20 21:33N 38°02' W 122°08'4 3.7
2015-Apr-20 20:30N 38°04' W 122°12'1111.1
2015-Apr-20 19:33N 37°60' W 122°25'1212.4
2015-Apr-20 18:33N 37°48' W 122°22'3 3.1
2015-Apr-20 17:31N 37°45' W 122°20'0 0.1
2015-Apr-20 16:31N 37°45' W 122°20'0 0.2
2015-Apr-20 15:31N 37°45' W 122°21'0 0.1
2015-Apr-20 14:31N 37°45' W 122°21'0 0.0
2015-Apr-20 13:31N 37°45' W 122°21'0 0.0
2015-Apr-20 12:31N 37°45' W 122°21'0 0.0
2015-Apr-20 11:31N 37°45' W 122°21'0 0.0
2015-Apr-20 10:31N 37°45' W 122°21'0 0.1
2015-Apr-20 09:31N 37°45' W 122°20'0 0.2
2015-Apr-20 08:31N 37°45' W 122°20'0 0.1
2015-Apr-20 07:31N 37°45' W 122°20'0 0.0
2015-Apr-20 06:31N 37°45' W 122°20'0 0.0
2015-Apr-20 05:31N 37°45' W 122°20'0 0.0
2015-Apr-20 04:31N 37°45' W 122°20'0 0.1
2015-Apr-20 03:31N 37°45' W 122°20'0 0.2
2015-Apr-20 02:31N 37°45' W 122°20'0 0.1
2015-Apr-20 01:31N 37°45' W 122°21'0 0.0
2015-Apr-20 00:31N 37°45' W 122°21'0 0.1
2015-Apr-19 23:31N 37°45' W 122°21'0 0.1
2015-Apr-19 22:31N 37°45' W 122°20'0 0.1
2015-Apr-19 21:31N 37°45' W 122°20'0 0.1
2015-Apr-19 20:31N 37°45' W 122°20'0 0.1
2015-Apr-19 19:31N 37°45' W 122°20'0 0.0
2015-Apr-19 18:31N 37°45' W 122°21'0 0.0
2015-Apr-19 17:31N 37°45' W 122°20'0 0.0
2015-Apr-19 16:31N 37°45' W 122°21'0 0.2
2015-Apr-19 15:31N 37°45' W 122°21'0 0.0
2015-Apr-19 14:31N 37°45' W 122°21'0 0.0
2015-Apr-19 13:31N 37°45' W 122°21'0 0.0
2015-Apr-19 12:31N 37°45' W 122°21'0 0.0
2015-Apr-19 11:31N 37°45' W 122°21'0 0.0
2015-Apr-19 10:31N 37°45' W 122°21'0 0.0
2015-Apr-19 09:31N 37°45' W 122°21'0 0.2
2015-Apr-19 08:28N 37°45' W 122°20'0 0.1
2015-Apr-19 07:31N 37°45' W 122°20'0 0.0
2015-Apr-19 06:31N 37°45' W 122°20'0 0.0
2015-Apr-19 05:31N 37°45' W 122°20'0 0.0
2015-Apr-19 04:31N 37°45' W 122°20'0 0.1
2015-Apr-19 03:31N 37°45' W 122°20'0 0.1
2015-Apr-19 02:31N 37°45' W 122°20'0 0.2
2015-Apr-19 01:28N 37°45' W 122°21'0 0.1
2015-Apr-19 00:31N 37°45' W 122°21'0 0.0
2015-Apr-18 23:31N 37°45' W 122°21'0 0.0
2015-Apr-18 22:31N 37°45' W 122°21'0 0.1
2015-Apr-18 21:31N 37°45' W 122°20'0 0.1
2015-Apr-18 20:31N 37°45' W 122°20'0 0.1
2015-Apr-18 19:31N 37°45' W 122°20'0 0.0
2015-Apr-18 18:31N 37°45' W 122°20'0 0.0
2015-Apr-18 17:31N 37°45' W 122°20'0 0.2
2015-Apr-18 16:33N 37°45' W 122°21'9 9.3
2015-Apr-18 15:33N 37°48' W 122°32'1111.5
2015-Apr-18 14:33N 37°42' W 122°44'8 8.3
2015-Apr-18 13:33N 37°37' W 122°53'7 7.4
2015-Apr-18 12:33N 37°33' W 123°00'7 7.1
2015-Apr-18 11:33N 37°31' W 123°09'3 3.0
2015-Apr-18 10:33N 37°29' W 123°11'3 3.5
2015-Apr-18 09:33N 37°26' W 123°08'5 5.4
2015-Apr-18 08:33N 37°21' W 123°05'8 7.8
2015-Apr-18 07:33N 37°14' W 123°01'1110.3
2015-Apr-18 06:31N 37°05' W 122°55'1010.5
2015-Apr-18 05:33N 36°56' W 122°50'1110.6
2015-Apr-18 04:33N 36°46' W 122°44'1110.8
2015-Apr-18 03:33N 36°36' W 122°38'1111.0
2015-Apr-18 02:34N 36°26' W 122°33'1111.0
2015-Apr-18 01:33N 36°16' W 122°27'1110.6
2015-Apr-18 00:33N 36°07' W 122°21'1010.0
2015-Apr-17 23:33N 35°58' W 122°14'1010.3
2015-Apr-17 22:33N 35°50' W 122°07'1010.4
2015-Apr-17 21:33N 35°41' W 121°60'1410.0
2015-Apr-17 20:09N 35°30' W 121°50'1810.6
2015-Apr-17 18:29N 35°15' W 121°37'1010.8
2015-Apr-17 17:33N 35°07' W 121°30'1111.3
2015-Apr-17 16:33N 34°58' W 121°22'1211.8
2015-Apr-17 15:31N 34°48' W 121°13'1111.3
2015-Apr-17 14:33N 34°39' W 121°06'1111.3
2015-Apr-17 13:33N 34°30' W 120°57'2311.0
2015-Apr-17 11:26N 34°22' W 120°31'6811.5
2015-Apr-17 05:33N 34°03' W 119°12'10 9.6
2015-Apr-17 04:33N 33°58' W 119°02'9 9.1
2015-Apr-17 03:33N 33°54' W 118°53'1110.7
2015-Apr-17 02:33N 33°48' W 118°41'1111.2
2015-Apr-17 01:34N 33°43' W 118°30'10 9.8
2015-Apr-17 00:32N 33°38' W 118°19'9 9.4
2015-Apr-16 23:33N 33°39' W 118°08'2 1.5
2015-Apr-16 22:30N 33°40' W 118°06'0 0.0
2015-Apr-16 21:33N 33°40' W 118°06'0 0.0
2015-Apr-16 20:33N 33°40' W 118°06'0 0.0
2015-Apr-16 19:27N 33°40' W 118°06'0 0.0
2015-Apr-16 18:33N 33°40' W 118°06'0 0.0
2015-Apr-16 17:33N 33°40' W 118°06'0 0.0
2015-Apr-16 16:33N 33°40' W 118°06'0 0.1
2015-Apr-16 15:33N 33°40' W 118°06'0 0.0
2015-Apr-16 14:33N 33°40' W 118°06'0 0.0
2015-Apr-16 13:33N 33°40' W 118°06'0 0.0
2015-Apr-16 12:33N 33°40' W 118°06'0 0.0
2015-Apr-16 11:33N 33°40' W 118°06'0 0.0
2015-Apr-16 10:30N 33°40' W 118°06'0 0.1
2015-Apr-16 09:27N 33°40' W 118°06'0 0.0
2015-Apr-16 08:33N 33°40' W 118°06'0 0.1
2015-Apr-16 07:33N 33°40' W 118°06'0 0.1
2015-Apr-16 06:33N 33°40' W 118°06'0 0.0
2015-Apr-16 05:33N 33°40' W 118°06'0 0.1
2015-Apr-16 04:30N 33°40' W 118°06'0 0.0
2015-Apr-16 03:33N 33°40' W 118°06'0 0.0
2015-Apr-16 02:33N 33°40' W 118°06'0 0.0
2015-Apr-16 01:33N 33°40' W 118°06'0 0.0
2015-Apr-16 00:33N 33°40' W 118°06'0 0.0
2015-Apr-15 23:33N 33°40' W 118°06'0 0.0
2015-Apr-15 22:33N 33°40' W 118°06'0 0.0
2015-Apr-15 21:33N 33°40' W 118°06'0 0.0
2015-Apr-15 20:33N 33°40' W 118°06'0 0.0
2015-Apr-15 19:33N 33°40' W 118°06'0 0.0
2015-Apr-15 18:33N 33°40' W 118°06'0 0.0
2015-Apr-15 17:33N 33°40' W 118°06'0 0.0
2015-Apr-15 16:33N 33°40' W 118°06'0 0.0
2015-Apr-15 15:21N 33°40' W 118°06'0 0.1
2015-Apr-15 13:29N 33°40' W 118°07'0 0.1
2015-Apr-15 12:30N 33°40' W 118°07'0 0.1
2015-Apr-15 11:33N 33°40' W 118°07'0 0.0
2015-Apr-15 10:09N 33°40' W 118°07'0 0.0
2015-Apr-15 08:24N 33°40' W 118°06'0 0.1
2015-Apr-15 07:21N 33°40' W 118°06'0 0.0
2015-Apr-15 05:33N 33°40' W 118°06'0 0.0
2015-Apr-15 04:03N 33°40' W 118°06'0 0.0
2015-Apr-15 03:09N 33°40' W 118°06'0 0.0
2015-Apr-15 02:21N 33°40' W 118°06'0 0.0
2015-Apr-14 22:09N 33°40' W 118°06'0 0.0
2015-Apr-14 21:21N 33°40' W 118°06'0 0.0
2015-Apr-14 20:27N 33°40' W 118°06'0 0.1
2015-Apr-14 19:27N 33°40' W 118°06'0 0.0
2015-Apr-14 18:24N 33°40' W 118°06'0 0.0
2015-Apr-14 17:33N 33°40' W 118°06'0 0.0
2015-Apr-14 16:33N 33°40' W 118°06'0 0.1
2015-Apr-14 15:30N 33°40' W 118°06'0 0.0
2015-Apr-14 12:09N 33°40' W 118°06'0 0.1
2015-Apr-14 11:12N 33°40' W 118°06'0 0.0
2015-Apr-14 10:33N 33°40' W 118°06'0 0.1
2015-Apr-14 09:30N 33°40' W 118°06'0 0.0
2015-Apr-14 04:33N 33°40' W 118°06'0 0.0
2015-Apr-14 03:21N 33°40' W 118°06'0 0.0
2015-Apr-14 02:30N 33°40' W 118°06'0 0.0
2015-Apr-14 01:33N 33°40' W 118°06'0 0.0
2015-Apr-14 00:33N 33°40' W 118°06'0 0.0
2015-Apr-13 23:33N 33°40' W 118°06'0 0.0
2015-Apr-13 22:30N 33°40' W 118°06'0 0.0
2015-Apr-13 21:33N 33°40' W 118°06'0 0.0
2015-Apr-13 20:27N 33°40' W 118°06'0 0.0
2015-Apr-13 19:21N 33°40' W 118°06'0 0.0
2015-Apr-13 17:27N 33°40' W 118°06'0 0.0
2015-Apr-13 16:33N 33°40' W 118°06'0 0.0
2015-Apr-13 15:30N 33°40' W 118°06'0 0.1
2015-Apr-13 14:33N 33°40' W 118°07'0 0.1
2015-Apr-13 13:33N 33°40' W 118°07'0 0.0
2015-Apr-13 12:21N 33°40' W 118°07'0 0.0
2015-Apr-13 11:33N 33°40' W 118°07'0 0.1
2015-Apr-13 10:33N 33°40' W 118°07'0 0.0
2015-Apr-13 09:33N 33°40' W 118°07'0 0.2
2015-Apr-13 08:33N 33°40' W 118°06'0 0.1
2015-Apr-13 07:33N 33°40' W 118°07'0 0.1
2015-Apr-13 06:33N 33°40' W 118°06'  

Dump ship's entire track history